LFKB/BIA METAR and TAF weather

Enter ICAO airport designator
Station Type Date Time Source
LFKB METAR 2019/06/27 10:30 UTC NOAA

LFKB 271030Z AUTO 11005KT 050V150 CAVOK 34/18 Q1019 NOSIG


Station Type Date Time Source
LFKB Decoded METAR 2019/06/27 10:30 UTC NOAA

Bastia, France (LFKB) 42-33N 009-29E 12M
Jun 27, 2019 - 06:30 AM EDT / 2019.06.27 1030 UTC
Wind: from the ESE (110 degrees) at 6 MPH (5 KT) (direction variable):0
Visibility: greater than 7 mile(s):0
Temperature: 93 F (34 C)
Heat index: 94.6 F (34.8 C):1
Dew Point: 64 F (18 C)
Relative Humidity: 38%
Pressure (altimeter): 30.09 in. Hg (1019 hPa)
ob: LFKB 271030Z AUTO 11005KT 050V150 CAVOK 34/18 Q1019 NOSIG
cycle: 10

Station Type Date Time Source
LFKB TAF 2019/06/27 09:21 UTC NOAA

TAF TAF LFKB 270800Z 2709/2809 06010KT CAVOK TX36/2712Z TN23/2803Z
BECMG 2717/2719 23003KT
BECMG 2806/2808 11010KT

Example: see airport list